Time;durP1;ratioP1;P1;durP2;ratioP2;P2;SDS_P1;SDS_P2;PMS_P1;PMS_P2;Temp;Humidity;BMP_temperature;BMP_pressure;BME280_temperature;BME280_humidity;BME280_pressure;Samples;Min_cycle;Max_cycle;Signal;HPM_P1;HPM_P2
2021/07/26 00:01:34;;;;;;;55.22;50.72;;;;;;;16.62;100.00;101298.16;5006942;28;20042;-78
2021/07/26 00:04:01;;;;;;;64.97;59.88;;;;;;;16.20;100.00;101303.56;4998064;28;20474;-83
2021/07/26 00:06:28;;;;;;;60.58;55.53;;;;;;;16.63;100.00;101289.06;5006970;28;20132;-79
2021/07/26 00:08:54;;;;;;;58.40;53.72;;;;;;;16.55;100.00;101284.06;5003174;28;20131;-77
2021/07/26 00:11:21;;;;;;;62.53;57.63;;;;;;;16.45;100.00;101275.75;5005490;28;20046;-78
2021/07/26 00:13:48;;;;;;;63.03;58.15;;;;;;;16.29;100.00;101281.78;5003831;28;20050;-78
2021/07/26 00:16:15;;;;;;;59.80;54.88;;;;;;;16.29;100.00;101279.13;5008555;28;20054;-77
2021/07/26 00:18:44;;;;;;;58.88;53.75;;;;;;;16.20;100.00;101283.97;5003410;28;20050;-78
2021/07/26 00:21:11;;;;;;;53.63;49.33;;;;;;;16.45;100.00;101286.47;5004052;28;20042;-78
2021/07/26 00:23:38;;;;;;;60.72;55.75;;;;;;;16.29;100.00;101287.97;5005053;28;20104;-79
2021/07/26 00:26:04;;;;;;;55.25;51.00;;;;;;;16.36;100.00;101293.22;5003500;28;20060;-79
2021/07/26 00:28:31;;;;;;;47.13;43.33;;;;;;;16.64;100.00;101292.56;5001447;28;20050;-78
2021/07/26 00:30:58;;;;;;;56.90;52.38;;;;;;;16.70;100.00;101294.31;5008059;28;20951;-78
2021/07/26 00:34:06;;;;;;;54.80;50.30;;;;;;;16.57;100.00;101283.81;5002003;28;20057;-78
2021/07/26 00:36:35;;;;;;;50.00;46.00;;;;;;;16.37;100.00;101279.59;4987557;28;20450;-78
2021/07/26 00:39:04;;;;;;;58.58;54.17;;;;;;;16.24;100.00;101279.78;5004769;28;20050;-77
2021/07/26 00:41:31;;;;;;;50.78;46.88;;;;;;;16.48;100.00;101283.31;5001981;28;20403;-79
2021/07/26 00:43:58;;;;;;;56.00;51.60;;;;;;;16.28;100.00;101289.03;5006951;28;20054;-79
2021/07/26 00:46:25;;;;;;;56.63;52.20;;;;;;;16.24;100.00;101283.28;5004475;28;20108;-77
2021/07/26 00:48:53;;;;;;;49.88;45.47;;;;;;;16.39;100.00;101290.88;4998778;28;20049;-78
2021/07/26 00:51:21;;;;;;;43.83;40.35;;;;;;;16.29;100.00;101293.31;4998618;28;20123;-79
2021/07/26 00:53:50;;;;;;;50.97;46.67;;;;;;;15.93;100.00;101287.03;4999821;28;20046;-79
2021/07/26 00:56:16;;;;;;;50.03;45.72;;;;;;;16.21;100.00;101286.41;5001293;28;20451;-78
2021/07/26 00:58:44;;;;;;;53.85;49.75;;;;;;;16.19;100.00;101283.16;4997506;28;20047;-77
2021/07/26 01:01:13;;;;;;;54.70;50.50;;;;;;;15.87;100.00;101292.50;5007033;28;20050;-77
2021/07/26 01:03:42;;;;;;;51.67;47.45;;;;;;;16.21;100.00;101285.59;5008253;28;20128;-77
2021/07/26 01:06:09;;;;;;;57.55;52.47;;;;;;;15.57;100.00;101294.06;5005646;28;20125;-77
2021/07/26 01:08:36;;;;;;;51.38;47.17;;;;;;;16.01;100.00;101291.28;5008246;28;20057;-79
2021/07/26 01:11:05;;;;;;;54.58;50.28;;;;;;;16.21;100.00;101285.59;5007724;28;20113;-79
2021/07/26 01:13:32;;;;;;;54.63;50.03;;;;;;;16.11;100.00;101286.16;5008637;28;20734;-77
2021/07/26 01:16:00;;;;;;;45.92;41.92;;;;;;;16.09;100.00;101293.59;5006668;28;20438;-78
2021/07/26 01:18:27;;;;;;;49.67;45.45;;;;;;;16.09;100.00;101284.75;5007852;28;20141;-78
2021/07/26 01:20:57;;;;;;;52.42;47.92;;;;;;;16.15;100.00;101298.06;5007219;28;20049;-78
2021/07/26 01:23:25;;;;;;;52.22;47.55;;;;;;;15.65;100.00;101300.19;5007885;28;20058;-78
2021/07/26 01:25:53;;;;;;;50.22;46.15;;;;;;;15.98;100.00;101289.06;5015309;28;20037;-80
2021/07/26 01:28:22;;;;;;;50.53;46.28;;;;;;;15.75;100.00;101292.44;5000520;28;20416;-77
2021/07/26 01:30:50;;;;;;;58.38;53.30;;;;;;;14.89;100.00;101297.69;5002807;28;20553;-79
2021/07/26 01:33:19;;;;;;;61.17;56.17;;;;;;;15.27;100.00;101306.56;5002890;28;20469;-80
2021/07/26 01:35:46;;;;;;;59.05;54.15;;;;;;;15.32;100.00;101309.41;5005392;28;20050;-78
2021/07/26 01:38:15;;;;;;;59.85;55.03;;;;;;;15.43;100.00;101311.34;5009079;28;20111;-78
2021/07/26 01:40:44;;;;;;;52.30;47.70;;;;;;;15.63;100.00;101310.28;5009667;28;20120;-79
2021/07/26 01:43:11;;;;;;;52.38;48.08;;;;;;;15.60;100.00;101308.88;5010895;28;20050;-78
2021/07/26 01:45:40;;;;;;;55.25;50.47;;;;;;;15.52;100.00;101309.16;5001415;28;20054;-79
2021/07/26 01:48:12;;;;;;;55.45;50.95;;;;;;;15.66;100.00;101309.84;5008642;28;20061;-79
2021/07/26 01:50:40;;;;;;;;;;;;;;;15.74;100.00;101307.69;5006684;28;20041;-78
2021/07/26 01:53:07;;;;;;;61.00;55.92;;;;;;;15.35;100.00;101307.09;5013403;28;20004;-78
2021/07/26 01:55:36;;;;;;;52.65;48.40;;;;;;;15.69;100.00;101298.69;5006585;28;20112;-79
2021/07/26 01:58:03;;;;;;;54.47;49.78;;;;;;;15.41;100.00;101301.91;5011518;28;20537;-77
2021/07/26 02:03:07;;;;;;;70.78;64.78;;;;;;;14.54;100.00;101304.59;5013818;28;20413;-78
2021/07/26 02:05:34;;;;;;;55.42;51.03;;;;;;;15.35;100.00;101298.25;5017926;28;20050;-78
2021/07/26 02:08:01;;;;;;;51.42;47.38;;;;;;;15.40;100.00;101295.75;5022944;28;20104;-77
2021/07/26 02:10:27;;;;;;;51.65;47.42;;;;;;;15.32;100.00;101299.50;5019297;28;20050;-76
2021/07/26 02:12:57;;;;;;;67.25;61.95;;;;;;;15.18;100.00;101294.53;5022717;28;20118;-77
2021/07/26 02:15:24;;;;;;;57.97;53.58;;;;;;;15.08;100.00;101295.84;5018489;28;20045;-78
2021/07/26 02:17:51;;;;;;;52.83;48.47;;;;;;;15.18;100.00;101294.53;5017982;28;20046;-78
2021/07/26 02:20:18;;;;;;;78.18;72.18;;;;;;;15.04;100.00;101292.00;5016864;28;20135;-78
2021/07/26 02:22:45;;;;;;;52.72;48.33;;;;;;;15.27;100.00;101288.66;5021200;28;20053;-80
2021/07/26 02:25:13;;;;;;;56.13;51.72;;;;;;;15.42;100.00;101282.13;5020792;28;20154;-79
2021/07/26 02:27:46;;;;;;;51.42;47.22;;;;;;;15.09;100.00;101278.75;5015569;28;20053;-78
2021/07/26 02:30:15;;;;;;;48.15;44.00;;;;;;;15.01;100.00;101291.63;5022271;28;20506;-79
2021/07/26 02:32:42;;;;;;;54.22;49.95;;;;;;;15.05;100.00;101276.75;5026457;28;20053;-77
2021/07/26 02:35:10;;;;;;;60.92;55.92;;;;;;;14.64;100.00;101281.69;5015234;28;20085;-78
2021/07/26 02:37:37;;;;;;;51.50;47.60;;;;;;;14.99;100.00;101293.69;5017759;28;20076;-79
2021/07/26 02:40:05;;;;;;;47.55;43.92;;;;;;;15.08;100.00;101277.13;5013480;28;20050;-77
2021/07/26 02:42:32;;;;;;;49.60;45.80;;;;;;;15.24;100.00;101275.72;5017802;28;20046;-79
2021/07/26 02:45:00;;;;;;;48.80;44.92;;;;;;;15.00;100.00;101277.41;5019404;28;20061;-80
2021/07/26 02:47:28;;;;;;;71.18;65.45;;;;;;;14.27;100.00;101277.22;5015508;28;20421;-82
2021/07/26 02:49:54;;;;;;;57.17;52.50;;;;;;;14.36;100.00;101281.25;5018544;28;20111;-79
2021/07/26 02:52:21;;;;;;;54.47;50.00;;;;;;;14.27;100.00;101280.69;5018478;28;20135;-79
2021/07/26 02:54:48;;;;;;;57.55;53.25;;;;;;;14.78;100.00;101286.91;5015772;28;20041;-78
2021/07/26 02:57:15;;;;;;;53.85;49.83;;;;;;;14.92;100.00;101296.44;5016263;28;20103;-78
2021/07/26 02:59:42;;;;;;;51.47;47.67;;;;;;;15.20;100.00;101300.47;5014291;28;20053;-79
2021/07/26 03:02:08;;;;;;;49.28;45.70;;;;;;;15.17;100.00;101299.06;5012751;28;20136;-77
2021/07/26 03:04:36;;;;;;;46.63;43.22;;;;;;;15.27;100.00;101291.31;5015138;28;20042;-78
2021/07/26 03:07:03;;;;;;;45.42;42.13;;;;;;;15.29;100.00;101297.28;5014157;28;20120;-78
2021/07/26 03:09:31;;;;;;;45.67;41.80;;;;;;;15.27;100.00;101296.69;5015538;28;20426;-79
2021/07/26 03:11:58;;;;;;;41.92;38.83;;;;;;;15.07;100.00;101304.13;5016892;28;20061;-79
2021/07/26 03:14:24;;;;;;;47.05;43.45;;;;;;;15.00;100.00;101298.81;5015500;28;20073;-78
2021/07/26 03:16:51;;;;;;;54.42;50.53;;;;;;;15.05;100.00;101303.50;5013617;28;20450;-80
2021/07/26 03:19:18;;;;;;;49.65;45.85;;;;;;;14.92;100.00;101300.94;5013071;28;20120;-78
2021/07/26 03:21:46;;;;;;;49.92;46.33;;;;;;;14.61;100.00;101319.53;5015971;28;20049;-78
2021/07/26 03:24:13;;;;;;;61.10;56.70;;;;;;;14.86;100.00;101316.03;5019288;28;20058;-77
2021/07/26 03:26:39;;;;;;;54.83;50.72;;;;;;;14.99;100.00;101325.78;5018267;28;20104;-79
2021/07/26 03:29:06;;;;;;;58.63;54.22;;;;;;;15.14;100.00;101328.13;5013510;28;20506;-78
2021/07/26 03:31:37;;;;;;;49.50;45.42;;;;;;;15.20;100.00;101332.59;5016697;28;20049;-79
2021/07/26 03:34:04;;;;;;;51.15;47.20;;;;;;;15.20;100.00;101336.09;5016244;28;20046;-79
2021/07/26 03:36:31;;;;;;;50.08;46.58;;;;;;;15.01;100.00;101337.09;5021004;28;20072;-78
2021/07/26 03:38:59;;;;;;;55.70;51.50;;;;;;;15.21;100.00;101337.72;5017321;28;20061;-78
2021/07/26 03:41:25;;;;;;;58.58;54.03;;;;;;;15.16;100.00;101328.69;5013216;28;20053;-78
2021/07/26 03:43:52;;;;;;;55.67;51.58;;;;;;;15.36;100.00;101334.69;5015369;28;20430;-78
2021/07/26 03:46:19;;;;;;;53.17;49.10;;;;;;;14.97;100.00;101335.88;5020718;28;20081;-79
2021/07/26 03:48:46;;;;;;;54.33;50.00;;;;;;;15.00;100.00;101343.47;5013275;28;20104;-78
2021/07/26 03:51:12;;;;;;;52.75;48.58;;;;;;;15.24;100.00;101345.28;5017738;28;20050;-79
2021/07/26 03:53:39;;;;;;;56.13;52.13;;;;;;;15.37;100.00;101340.84;5022095;28;20066;-78
2021/07/26 03:56:07;;;;;;;50.28;46.58;;;;;;;15.65;100.00;101351.06;5019787;28;20042;-77
2021/07/26 03:58:34;;;;;;;46.30;42.55;;;;;;;15.97;100.00;101347.16;5014193;28;20054;-78
2021/07/26 04:01:00;;;;;;;50.28;46.28;;;;;;;16.15;100.00;101356.19;5014802;28;20054;-78
2021/07/26 04:03:30;;;;;;;44.88;41.53;;;;;;;16.08;100.00;101355.47;5013928;28;20576;-77
2021/07/26 04:06:02;;;;;;;49.15;45.53;;;;;;;16.25;100.00;101356.50;5020179;28;20412;-78
2021/07/26 04:08:31;;;;;;;49.58;45.83;;;;;;;16.47;100.00;101354.09;5023062;28;20057;-77
2021/07/26 04:11:03;;;;;;;50.38;46.78;;;;;;;16.47;100.00;101354.91;5018486;28;20054;-79
2021/07/26 04:13:34;;;;;;;50.67;46.95;;;;;;;16.51;100.00;101352.56;5016655;28;20054;-78
2021/07/26 04:16:00;;;;;;;52.80;49.08;;;;;;;16.65;100.00;101361.25;5020684;28;20076;-77
2021/07/26 04:18:29;;;;;;;51.95;48.25;;;;;;;16.70;100.00;101350.63;5016458;28;20405;-76
2021/07/26 04:20:56;;;;;;;49.08;45.67;;;;;;;16.78;100.00;101361.06;5015823;28;20458;-81
2021/07/26 04:23:23;;;;;;;48.92;45.20;;;;;;;16.92;100.00;101359.78;5014692;28;20049;-77
2021/07/26 04:25:51;;;;;;;48.25;44.70;;;;;;;16.84;100.00;101362.00;5021499;28;20045;-79
2021/07/26 04:28:25;;;;;;;48.97;45.30;;;;;;;17.03;100.00;101360.84;5017335;28;20064;-78
2021/07/26 04:30:53;;;;;;;49.47;45.58;;;;;;;17.25;100.00;101353.03;5016229;28;20060;-78
2021/07/26 04:33:20;;;;;;;43.75;40.13;;;;;;;17.15;100.00;101345.53;5019638;28;20061;-78
2021/07/26 04:35:47;;;;;;;45.03;41.42;;;;;;;17.29;100.00;101353.38;5017569;28;20056;-79
2021/07/26 04:38:14;;;;;;;47.70;43.92;;;;;;;17.23;100.00;101348.94;5020012;28;20402;-78
2021/07/26 04:40:41;;;;;;;44.65;41.63;;;;;;;17.36;100.00;101346.00;5020621;28;20112;-80
2021/07/26 04:43:08;;;;;;;43.15;39.88;;;;;;;17.57;100.00;101355.31;5018528;28;20380;-82
2021/07/26 04:45:35;;;;;;;45.90;42.30;;;;;;;17.68;100.00;101359.84;5014221;28;20045;-80
2021/07/26 04:48:03;;;;;;;47.55;43.95;;;;;;;17.73;100.00;101365.31;5015050;28;20050;-78
2021/07/26 04:50:30;;;;;;;45.65;42.40;;;;;;;19.81;100.00;101365.50;5018657;28;20050;-78
2021/07/26 04:52:58;;;;;;;53.80;50.20;;;;;;;23.88;100.00;101350.16;5015953;28;20054;-82
2021/07/26 04:55:32;;;;;;;43.28;40.58;;;;;;;24.87;100.00;101342.66;5042135;28;20619;-82
2021/07/26 04:57:59;;;;;;;36.33;33.92;;;;;;;24.13;100.00;101338.34;5019387;28;20045;-79
2021/07/26 05:00:36;;;;;;;34.35;32.08;;;;;;;23.59;100.00;101347.28;5014049;28;20057;-80
2021/07/26 05:03:14;;;;;;;29.75;27.60;;;;;;;21.71;100.00;101355.94;5021840;28;20064;-80
2021/07/26 05:05:40;;;;;;;34.45;32.47;;;;;;;19.66;100.00;101360.72;5023677;28;20046;-80
2021/07/26 05:08:07;;;;;;;35.33;32.97;;;;;;;19.02;100.00;101358.50;5016294;28;20930;-79
2021/07/26 05:10:34;;;;;;;39.97;36.70;;;;;;;18.78;100.00;101355.16;5022760;28;20546;-80
2021/07/26 05:13:00;;;;;;;37.60;34.75;;;;;;;18.88;100.00;101358.03;5033089;28;20049;-79
2021/07/26 05:15:33;;;;;;;37.92;35.42;;;;;;;19.03;100.00;101359.31;5020332;28;20375;-82
2021/07/26 05:18:00;;;;;;;38.90;36.05;;;;;;;19.14;100.00;101361.09;5021731;28;20053;-79
2021/07/26 05:20:28;;;;;;;36.30;33.67;;;;;;;19.33;100.00;101354.34;5020342;28;20108;-80
2021/07/26 05:22:55;;;;;;;38.65;35.95;;;;;;;19.52;100.00;101362.16;5023744;28;20038;-80
2021/07/26 05:25:21;;;;;;;35.50;32.75;;;;;;;19.54;100.00;101352.75;5025101;28;20064;-82
2021/07/26 05:27:51;;;;;;;35.20;32.47;;;;;;;19.65;100.00;101356.41;5032309;28;20049;-78
2021/07/26 05:30:18;;;;;;;36.78;33.80;;;;;;;19.89;100.00;101354.28;5019483;28;20068;-80
2021/07/26 05:32:45;;;;;;;35.25;32.45;;;;;;;19.96;100.00;101365.66;5028297;28;20053;-79
2021/07/26 05:35:12;;;;;;;40.22;37.05;;;;;;;20.17;100.00;101371.28;5031911;28;20054;-79
2021/07/26 05:37:40;;;;;;;38.38;35.60;;;;;;;20.27;100.00;101377.59;5020012;28;20049;-79
2021/07/26 05:40:08;;;;;;;36.67;34.17;;;;;;;20.49;100.00;101385.63;5021377;28;20128;-79
2021/07/26 05:42:35;;;;;;;38.30;35.53;;;;;;;20.62;100.00;101381.72;5018590;28;20147;-81
2021/07/26 05:45:03;;;;;;;37.22;34.40;;;;;;;20.69;100.00;101386.91;5015717;28;20054;-79
2021/07/26 05:47:30;;;;;;;36.78;34.28;;;;;;;20.88;100.00;101381.91;5020167;28;20436;-79
2021/07/26 05:49:57;;;;;;;38.42;35.80;;;;;;;20.88;100.00;101374.66;5024572;28;20065;-78
2021/07/26 05:52:24;;;;;;;35.78;33.38;;;;;;;21.08;100.00;101370.47;5022946;28;20045;-82
2021/07/26 05:54:52;;;;;;;34.08;31.70;;;;;;;21.20;100.00;101371.88;5020641;28;20042;-80
2021/07/26 05:57:20;;;;;;;34.22;31.92;;;;;;;21.36;100.00;101375.53;5028343;28;20108;-78
2021/07/26 05:59:51;;;;;;;35.13;32.63;;;;;;;21.70;100.00;101380.56;5029959;28;20458;-80
2021/07/26 06:02:24;;;;;;;34.28;32.05;;;;;;;21.82;100.00;101380.34;5027185;28;20505;-79
2021/07/26 06:04:51;;;;;;;34.53;32.17;;;;;;;21.95;100.00;101375.22;5026778;28;20045;-80
2021/07/26 06:07:18;;;;;;;33.05;30.48;;;;;;;22.06;100.00;101380.66;5021594;28;20058;-80
2021/07/26 06:09:46;;;;;;;33.55;31.23;;;;;;;22.12;100.00;101380.44;5025697;28;20058;-80
2021/07/26 06:12:14;;;;;;;32.30;29.75;;;;;;;22.31;100.00;101378.03;5028780;28;20059;-80
2021/07/26 06:14:41;;;;;;;34.72;32.13;;;;;;;22.63;100.00;101383.22;5020009;28;20049;-80
2021/07/26 06:17:07;;;;;;;32.55;30.10;;;;;;;22.66;100.00;101381.03;5028808;28;20049;-80
2021/07/26 06:19:35;;;;;;;32.40;29.70;;;;;;;22.73;100.00;101387.00;5022574;28;20468;-81
2021/07/26 06:22:02;;;;;;;31.05;28.65;;;;;;;22.82;100.00;101390.81;5025430;28;20085;-81
2021/07/26 06:24:28;;;;;;;33.75;31.05;;;;;;;23.06;100.00;101378.34;5023090;28;20057;-83
2021/07/26 06:26:56;;;;;;;31.52;28.70;;;;;;;23.05;100.00;101382.13;5018974;28;20734;-80
2021/07/26 06:29:24;;;;;;;32.85;30.50;;;;;;;23.34;100.00;101376.09;5022090;28;20076;-80
2021/07/26 06:31:51;;;;;;;28.98;27.08;;;;;;;23.55;100.00;101382.28;5021017;28;20128;-79
2021/07/26 06:34:18;;;;;;;28.45;26.55;;;;;;;23.62;100.00;101382.78;5030987;28;20103;-79
2021/07/26 06:36:45;;;;;;;28.15;26.05;;;;;;;23.70;100.00;101376.00;5021416;28;20490;-80
2021/07/26 06:39:13;;;;;;;28.45;26.45;;;;;;;24.16;100.00;101375.75;5019667;28;20046;-82
2021/07/26 06:41:39;;;;;;;31.27;28.73;;;;;;;24.14;100.00;101377.94;5022442;28;20495;-81
2021/07/26 06:44:06;;;;;;;28.88;26.30;;;;;;;24.37;100.00;101377.25;5016316;28;20053;-81
2021/07/26 06:46:34;;;;;;;29.52;27.20;;;;;;;24.45;100.00;101379.41;5019724;28;20489;-80
2021/07/26 06:49:02;;;;;;;28.38;26.10;;;;;;;24.85;100.00;101379.34;5023117;28;20135;-81
2021/07/26 06:51:30;;;;;;;27.92;26.10;;;;;;;24.84;100.00;101378.53;5024161;28;20045;-80
2021/07/26 06:53:57;;;;;;;28.38;25.95;;;;;;;24.86;100.00;101380.94;5020011;28;20057;-79
2021/07/26 06:56:25;;;;;;;27.88;25.48;;;;;;;24.76;100.00;101372.91;5019913;28;20087;-79
2021/07/26 06:58:51;;;;;;;28.90;26.67;;;;;;;24.89;100.00;101375.75;5024379;28;20056;-84
2021/07/26 07:01:18;;;;;;;27.55;25.65;;;;;;;25.01;100.00;101380.00;5025100;28;20122;-84
2021/07/26 07:03:47;;;;;;;28.65;26.58;;;;;;;25.25;100.00;101371.91;5014946;28;20160;-81
2021/07/26 07:06:15;;;;;;;27.95;26.05;;;;;;;25.64;100.00;101369.00;5023255;28;20045;-81
2021/07/26 07:08:43;;;;;;;30.30;27.95;;;;;;;25.96;100.00;101372.94;5027417;28;20481;-79
2021/07/26 07:11:17;;;;;;;28.30;26.20;;;;;;;26.35;100.00;101375.34;5025325;28;20053;-80
2021/07/26 07:13:45;;;;;;;28.17;26.48;;;;;;;26.21;100.00;101382.66;5017425;28;20537;-81
2021/07/26 07:16:16;;;;;;;28.08;25.80;;;;;;;26.38;100.00;101380.19;5019976;28;20124;-79
2021/07/26 07:18:43;;;;;;;27.58;25.58;;;;;;;26.66;100.00;101386.59;5019241;28;20495;-80
2021/07/26 07:21:16;;;;;;;26.08;24.27;;;;;;;26.35;100.00;101390.88;5017277;28;20049;-79
2021/07/26 07:23:43;;;;;;;25.83;24.13;;;;;;;26.44;100.00;101383.66;5023951;28;20124;-83
2021/07/26 07:26:09;;;;;;;28.27;26.48;;;;;;;26.38;100.00;101380.19;5015987;28;20050;-81
2021/07/26 07:28:36;;;;;;;27.27;25.27;;;;;;;26.45;100.00;101379.84;5017026;28;20041;-80
2021/07/26 07:31:03;;;;;;;28.08;26.08;;;;;;;26.67;100.00;101379.25;5017494;28;20050;-79
2021/07/26 07:33:30;;;;;;;26.23;24.52;;;;;;;26.67;100.00;101384.69;5019123;28;20387;-81
2021/07/26 07:35:56;;;;;;;26.55;24.85;;;;;;;26.89;100.00;101386.75;5018885;28;20046;-81
2021/07/26 07:38:26;;;;;;;27.48;25.83;;;;;;;27.20;100.00;101380.75;5015011;28;20069;-81
2021/07/26 07:40:53;;;;;;;28.27;26.30;;;;;;;27.05;100.00;101377.22;5016261;28;20482;-81
2021/07/26 07:43:20;;;;;;;27.88;26.10;;;;;;;27.27;100.00;101381.19;5019142;28;20104;-80
2021/07/26 07:45:47;;;;;;;27.77;25.95;;;;;;;27.38;100.00;101383.41;5020790;28;20045;-80
2021/07/26 07:48:18;;;;;;;27.17;25.13;;;;;;;27.36;98.45;101371.19;5017085;28;20050;-80
2021/07/26 07:50:44;;;;;;;27.45;25.63;;;;;;;27.42;98.50;101378.16;5021111;28;20394;-81
2021/07/26 07:53:11;;;;;;;26.63;24.35;;;;;;;27.53;100.00;101379.53;5016641;28;20050;-80
2021/07/26 07:55:39;;;;;;;26.73;25.10;;;;;;;27.60;100.00;101385.41;5026979;28;20053;-82
2021/07/26 07:58:06;;;;;;;26.13;24.42;;;;;;;27.82;89.76;101378.44;5026016;28;20059;-80
2021/07/26 08:00:33;;;;;;;25.88;23.95;;;;;;;27.98;86.64;101382.44;5017055;28;20046;-79
2021/07/26 08:03:00;;;;;;;26.55;24.55;;;;;;;28.35;97.18;101376.94;5011977;28;20062;-80
2021/07/26 08:05:27;;;;;;;27.20;25.15;;;;;;;28.44;100.00;101381.41;5014575;28;20050;-80
2021/07/26 08:07:54;;;;;;;27.13;24.85;;;;;;;28.33;85.99;101387.41;5021053;28;20074;-81
2021/07/26 08:10:21;;;;;;;26.15;24.38;;;;;;;28.16;73.37;101382.59;5014926;28;20388;-83
2021/07/26 08:12:49;;;;;;;26.38;24.27;;;;;;;28.12;78.29;101387.88;5016708;28;20411;-80
2021/07/26 08:15:17;;;;;;;25.73;23.67;;;;;;;28.09;83.03;101383.84;5020621;28;20494;-80
2021/07/26 08:17:46;;;;;;;25.00;23.38;;;;;;;28.31;83.50;101377.56;5016452;28;20054;-82
2021/07/26 08:20:15;;;;;;;24.85;23.15;;;;;;;28.69;92.54;101382.69;5020615;28;20062;-82
2021/07/26 08:22:42;;;;;;;26.08;23.77;;;;;;;28.54;78.65;101375.69;5017985;28;20050;-81
2021/07/26 08:25:11;;;;;;;25.55;23.80;;;;;;;28.67;93.23;101378.66;5018442;28;20046;-80
2021/07/26 08:27:53;;;;;;;25.90;24.30;;;;;;;28.74;94.49;101374.34;5027217;28;20053;-81
2021/07/26 08:30:21;;;;;;;26.30;24.70;;;;;;;28.95;83.91;101374.63;5019365;28;20108;-81
2021/07/26 08:32:48;;;;;;;26.42;24.52;;;;;;;29.24;84.79;101378.00;5017074;28;20477;-81
2021/07/26 08:35:15;;;;;;;26.27;24.73;;;;;;;29.27;82.18;101378.19;5016811;28;20049;-81
2021/07/26 08:37:50;;;;;;;29.73;27.42;;;;;;;29.27;73.46;101378.19;5018090;28;20474;-80
2021/07/26 08:40:19;;;;;;;28.83;26.95;;;;;;;29.06;63.83;101382.59;5016375;28;20049;-80
2021/07/26 08:42:46;;;;;;;27.17;25.58;;;;;;;29.37;67.38;101377.06;5015224;28;20057;-81
2021/07/26 08:45:14;;;;;;;29.48;27.77;;;;;;;29.05;61.83;101376.31;5021935;28;20045;-79
2021/07/26 08:47:42;;;;;;;26.70;25.00;;;;;;;29.00;59.68;101384.63;5015214;28;20061;-80
2021/07/26 08:50:11;;;;;;;27.13;25.42;;;;;;;29.08;69.94;101383.06;5022043;28;20050;-82
2021/07/26 08:52:41;;;;;;;27.80;26.08;;;;;;;28.23;93.91;101378.34;5019614;28;20467;-81
2021/07/26 08:55:11;;;;;;;27.80;26.27;;;;;;;29.05;80.22;101376.31;5023444;28;20056;-81
2021/07/26 08:57:41;;;;;;;28.60;26.75;;;;;;;28.91;95.83;101376.38;5016620;28;20466;-81
2021/07/26 09:00:10;;;;;;;26.83;25.00;;;;;;;29.44;85.04;101374.69;5015623;28;20133;-80
2021/07/26 09:02:38;;;;;;;27.90;26.20;;;;;;;29.36;69.46;101373.53;5018890;28;20058;-81
2021/07/26 09:05:08;;;;;;;28.35;26.65;;;;;;;29.26;70.17;101371.09;5019614;28;20054;-81
2021/07/26 09:07:39;;;;;;;27.10;25.45;;;;;;;29.66;88.88;101362.88;5016392;28;20414;-82
2021/07/26 09:10:13;;;;;;;29.58;27.65;;;;;;;29.56;78.85;101371.31;5018731;28;20080;-79
2021/07/26 09:12:41;;;;;;;27.73;25.90;;;;;;;29.76;71.04;101370.75;5021833;28;20046;-81
2021/07/26 09:15:22;;;;;;;26.95;25.25;;;;;;;30.22;78.64;101368.53;5016120;28;20050;-79
2021/07/26 09:17:51;;;;;;;26.10;24.15;;;;;;;29.75;64.52;101369.16;5021084;28;20042;-79
2021/07/26 09:20:20;;;;;;;27.50;25.70;;;;;;;29.94;59.87;101368.84;5020760;28;20116;-78
2021/07/26 09:22:48;;;;;;;26.40;24.80;;;;;;;29.70;66.25;101360.28;5015972;28;20117;-80
2021/07/26 09:25:23;;;;;;;27.80;26.00;;;;;;;30.11;72.31;101368.06;5013806;28;20046;-80
2021/07/26 09:28:15;;;;;;;29.00;27.10;;;;;;;30.18;65.80;101364.81;5030159;28;20052;-78
2021/07/26 09:30:44;;;;;;;28.77;26.92;;;;;;;29.65;68.59;101366.69;5019697;28;20046;-78
2021/07/26 09:33:30;;;;;;;29.88;27.88;;;;;;;30.19;58.73;101355.47;5019460;28;20053;-79
2021/07/26 09:36:08;;;;;;;27.63;25.70;;;;;;;29.99;80.75;101348.72;5023790;28;20112;-79
2021/07/26 09:38:35;;;;;;;29.92;27.95;;;;;;;29.69;58.53;101337.59;5031306;28;20458;-78
2021/07/26 09:41:02;;;;;;;30.40;28.45;;;;;;;30.01;49.12;101349.19;5016528;28;20204;-80
2021/07/26 09:43:30;;;;;;;28.88;27.20;;;;;;;30.08;77.19;101342.13;5029079;28;20418;-81
2021/07/26 09:45:59;;;;;;;30.00;27.90;;;;;;;30.47;69.82;101345.81;5026181;28;20056;-81
2021/07/26 09:48:29;;;;;;;29.13;27.33;;;;;;;30.64;62.24;101344.16;5025946;28;20050;-79
2021/07/26 09:50:57;;;;;;;27.25;25.55;;;;;;;30.37;52.61;101342.59;5019642;28;20050;-78
2021/07/26 09:53:25;;;;;;;29.60;27.80;;;;;;;30.87;63.49;101342.00;5019398;28;20046;-79
2021/07/26 09:55:53;;;;;;;28.83;27.17;;;;;;;29.97;76.15;101345.50;5019127;28;20061;-80
2021/07/26 09:58:34;;;;;;;28.13;26.42;;;;;;;30.63;45.27;101342.53;5022078;28;20466;-78
2021/07/26 10:01:01;;;;;;;26.38;24.85;;;;;;;30.74;42.54;101343.78;5018028;28;20132;-79
2021/07/26 10:03:30;;;;;;;27.23;25.15;;;;;;;30.97;46.91;101339.69;5018006;28;20564;-79
2021/07/26 10:05:58;;;;;;;27.80;25.95;;;;;;;31.00;42.59;101324.53;5018933;28;20465;-80
2021/07/26 10:08:25;;;;;;;26.60;24.90;;;;;;;31.07;47.26;101319.31;5023451;28;20493;-78
2021/07/26 10:10:52;;;;;;;26.70;24.90;;;;;;;31.34;39.84;101337.28;5018915;28;20054;-82
2021/07/26 10:13:19;;;;;;;24.80;23.25;;;;;;;31.48;36.33;101329.59;5022312;28;20050;-79
2021/07/26 10:15:47;;;;;;;25.27;23.30;;;;;;;31.29;52.42;101329.22;5020088;28;20050;-78
2021/07/26 10:18:14;;;;;;;25.17;23.38;;;;;;;31.36;65.11;101325.97;5021105;28;20479;-78
2021/07/26 10:21:00;;;;;;;27.27;25.23;;;;;;;31.89;50.78;101318.97;5024925;28;20493;-79
2021/07/26 10:23:34;;;;;;;28.90;27.00;;;;;;;30.55;69.53;101322.25;5020997;28;20054;-79
2021/07/26 10:26:04;;;;;;;25.40;23.58;;;;;;;31.65;58.26;101320.47;5018578;28;20065;-78
2021/07/26 10:28:33;;;;;;;24.20;22.35;;;;;;;31.13;55.40;101314.44;5023626;28;20041;-78
2021/07/26 10:31:00;;;;;;;26.38;24.30;;;;;;;31.90;48.56;101309.63;5021586;28;20049;-81
2021/07/26 10:33:29;;;;;;;26.42;24.60;;;;;;;31.82;43.92;101311.25;5023136;28;20045;-78
2021/07/26 10:35:57;;;;;;;26.67;24.92;;;;;;;31.51;54.06;101316.38;5016661;28;20050;-79
2021/07/26 10:38:55;;;;;;;25.02;23.42;;;;;;;32.15;50.72;101314.06;5022085;28;20049;-78
2021/07/26 10:41:59;;;;;;;23.98;22.17;;;;;;;32.08;33.96;101308.31;5016467;28;20076;-79
2021/07/26 10:44:45;;;;;;;22.17;20.20;;;;;;;31.99;33.37;101309.56;5023817;28;20045;-79
2021/07/26 10:47:29;;;;;;;24.30;22.60;;;;;;;31.82;35.42;101305.78;5015226;28;20050;-79
2021/07/26 10:50:16;;;;;;;24.33;22.27;;;;;;;32.16;35.21;101298.38;5022156;28;20038;-80
2021/07/26 10:52:51;;;;;;;23.85;22.05;;;;;;;31.69;35.07;101295.88;5024172;28;20368;-81
2021/07/26 10:55:57;;;;;;;25.23;23.52;;;;;;;31.94;32.84;101294.06;5015093;28;20050;-81
2021/07/26 10:59:03;;;;;;;24.98;23.17;;;;;;;32.08;37.38;101304.78;5017787;28;20427;-80
2021/07/26 11:01:56;;;;;;;23.98;22.15;;;;;;;31.94;33.99;101300.38;5023595;28;20045;-79
2021/07/26 11:04:41;;;;;;;25.02;23.42;;;;;;;31.89;35.23;101286.84;5024196;28;20137;-80
2021/07/26 11:07:09;;;;;;;24.42;22.83;;;;;;;32.44;33.07;101295.00;5017968;28;20410;-81
2021/07/26 11:09:42;;;;;;;23.98;22.00;;;;;;;32.64;33.02;101298.88;5023947;28;20041;-81
2021/07/26 11:12:09;;;;;;;25.95;24.17;;;;;;;32.35;36.18;101297.88;5023139;28;20430;-78
2021/07/26 11:14:36;;;;;;;25.90;24.15;;;;;;;33.10;41.05;101296.84;5024299;28;20499;-80
2021/07/26 11:17:04;;;;;;;24.33;22.52;;;;;;;32.74;42.30;101292.91;5015286;28;20114;-79